COS weather

City of Colorado Springs Municipal Airport
Colorado Springs, Colorado, United States

Public forecast

Using degrees Fahrenheit for public forecast. Weather courtesy of forecast.io.

Current aviation weather report (METAR) for City of Colorado Springs Municipal Airport

Retrieved 2020/07/05 00:15 UTC (38 minutes ago):

KCOS 050015Z 09015KT 5SM RA FEW030 BKN060 OVC090 16/12 A3029

Aviation forecast (TAF) for City of Colorado Springs Municipal Airport

Retrieved 2020-07-05 00:36 UTC (17 minutes ago):

TAF KCOS 042333Z 0500/0524 32010G20KT P6SM VCTS BKN090CB FM050200 33005KT P6SM VCSH FEW010 FM050600 01005KT P6SM FEW070 SCT120 FM051200 03005KT P6SM SCT070 FM051700 09010KT P6SM SCT090 FM052100 12010G20KT P6SM VCTS SCT060CB